sensor_id;sensor_type;location;lat;lon;timestamp;P1;durP1;ratioP1;P2;durP2;ratioP2
66380;SDS011;53177;52.648;1.214;2023-07-31T00:02:22;10.90;;;3.80;;
66380;SDS011;53177;52.648;1.214;2023-07-31T00:04:47;14.20;;;3.80;;
66380;SDS011;53177;52.648;1.214;2023-07-31T00:07:14;14.35;;;3.97;;
66380;SDS011;53177;52.648;1.214;2023-07-31T00:09:39;11.73;;;3.87;;
66380;SDS011;53177;52.648;1.214;2023-07-31T00:12:05;16.25;;;4.35;;
66380;SDS011;53177;52.648;1.214;2023-07-31T00:14:30;12.77;;;4.23;;
66380;SDS011;53177;52.648;1.214;2023-07-31T00:16:56;11.70;;;4.07;;
66380;SDS011;53177;52.648;1.214;2023-07-31T00:19:21;10.70;;;4.57;;
66380;SDS011;53177;52.648;1.214;2023-07-31T00:21:46;11.45;;;4.00;;
66380;SDS011;53177;52.648;1.214;2023-07-31T00:24:12;14.50;;;4.43;;
66380;SDS011;53177;52.648;1.214;2023-07-31T00:26:37;14.87;;;4.13;;
66380;SDS011;53177;52.648;1.214;2023-07-31T00:29:02;19.13;;;4.53;;
66380;SDS011;53177;52.648;1.214;2023-07-31T00:31:28;18.90;;;5.00;;
66380;SDS011;53177;52.648;1.214;2023-07-31T00:33:53;14.97;;;4.70;;
66380;SDS011;53177;52.648;1.214;2023-07-31T00:36:18;14.77;;;5.03;;
66380;SDS011;53177;52.648;1.214;2023-07-31T00:38:44;14.88;;;4.70;;
66380;SDS011;53177;52.648;1.214;2023-07-31T00:41:09;17.08;;;4.90;;
66380;SDS011;53177;52.648;1.214;2023-07-31T00:43:34;16.93;;;5.57;;
66380;SDS011;53177;52.648;1.214;2023-07-31T00:46:00;17.33;;;5.07;;
66380;SDS011;53177;52.648;1.214;2023-07-31T00:48:25;13.87;;;4.90;;
66380;SDS011;53177;52.648;1.214;2023-07-31T00:50:51;17.35;;;4.90;;
66380;SDS011;53177;52.648;1.214;2023-07-31T00:53:17;14.40;;;4.60;;
66380;SDS011;53177;52.648;1.214;2023-07-31T00:55:43;16.17;;;4.93;;
66380;SDS011;53177;52.648;1.214;2023-07-31T00:58:09;13.53;;;4.67;;
66380;SDS011;53177;52.648;1.214;2023-07-31T01:00:34;17.08;;;5.40;;
66380;SDS011;53177;52.648;1.214;2023-07-31T01:03:00;19.75;;;5.20;;
66380;SDS011;53177;52.648;1.214;2023-07-31T01:05:29;16.60;;;5.03;;
66380;SDS011;53177;52.648;1.214;2023-07-31T01:08:04;17.38;;;5.10;;
66380;SDS011;53177;52.648;1.214;2023-07-31T01:10:34;16.65;;;4.80;;
66380;SDS011;53177;52.648;1.214;2023-07-31T01:13:07;22.73;;;5.22;;
66380;SDS011;53177;52.648;1.214;2023-07-31T01:15:33;16.33;;;4.95;;
66380;SDS011;53177;52.648;1.214;2023-07-31T01:17:58;16.73;;;4.83;;
66380;SDS011;53177;52.648;1.214;2023-07-31T01:20:24;15.67;;;4.60;;
66380;SDS011;53177;52.648;1.214;2023-07-31T01:31:07;15.80;;;4.63;;
66380;SDS011;53177;52.648;1.214;2023-07-31T01:33:36;17.30;;;4.30;;
66380;SDS011;53177;52.648;1.214;2023-07-31T01:36:02;15.23;;;4.78;;
66380;SDS011;53177;52.648;1.214;2023-07-31T01:38:28;16.98;;;4.28;;
66380;SDS011;53177;52.648;1.214;2023-07-31T01:40:53;16.15;;;5.25;;
66380;SDS011;53177;52.648;1.214;2023-07-31T01:43:19;15.00;;;4.73;;
66380;SDS011;53177;52.648;1.214;2023-07-31T01:45:45;14.05;;;3.95;;
66380;SDS011;53177;52.648;1.214;2023-07-31T01:48:10;16.13;;;4.30;;
66380;SDS011;53177;52.648;1.214;2023-07-31T01:50:36;17.83;;;4.63;;
66380;SDS011;53177;52.648;1.214;2023-07-31T01:53:01;17.63;;;4.57;;
66380;SDS011;53177;52.648;1.214;2023-07-31T01:55:26;16.53;;;4.63;;
66380;SDS011;53177;52.648;1.214;2023-07-31T01:57:52;19.20;;;4.97;;
66380;SDS011;53177;52.648;1.214;2023-07-31T02:00:18;16.48;;;5.32;;
66380;SDS011;53177;52.648;1.214;2023-07-31T02:02:45;16.80;;;4.80;;
66380;SDS011;53177;52.648;1.214;2023-07-31T02:05:10;14.57;;;4.50;;
66380;SDS011;53177;52.648;1.214;2023-07-31T02:07:35;17.93;;;4.70;;
66380;SDS011;53177;52.648;1.214;2023-07-31T02:10:01;13.47;;;4.43;;
66380;SDS011;53177;52.648;1.214;2023-07-31T02:12:26;19.33;;;4.20;;
66380;SDS011;53177;52.648;1.214;2023-07-31T02:14:52;14.17;;;4.23;;
66380;SDS011;53177;52.648;1.214;2023-07-31T02:17:17;15.00;;;5.33;;
66380;SDS011;53177;52.648;1.214;2023-07-31T02:19:42;20.00;;;4.80;;
66380;SDS011;53177;52.648;1.214;2023-07-31T02:22:08;14.50;;;4.10;;
66380;SDS011;53177;52.648;1.214;2023-07-31T02:24:33;13.30;;;4.13;;
66380;SDS011;53177;52.648;1.214;2023-07-31T02:26:58;15.50;;;4.45;;
66380;SDS011;53177;52.648;1.214;2023-07-31T02:29:24;16.00;;;5.07;;
66380;SDS011;53177;52.648;1.214;2023-07-31T02:31:49;15.40;;;4.60;;
66380;SDS011;53177;52.648;1.214;2023-07-31T02:34:14;16.73;;;4.33;;
66380;SDS011;53177;52.648;1.214;2023-07-31T02:36:40;16.03;;;4.07;;
66380;SDS011;53177;52.648;1.214;2023-07-31T02:39:05;15.00;;;4.00;;
66380;SDS011;53177;52.648;1.214;2023-07-31T02:41:30;17.33;;;4.30;;
66380;SDS011;53177;52.648;1.214;2023-07-31T02:43:56;13.50;;;4.00;;
66380;SDS011;53177;52.648;1.214;2023-07-31T02:46:21;14.63;;;4.20;;
66380;SDS011;53177;52.648;1.214;2023-07-31T02:48:49;11.93;;;3.55;;
66380;SDS011;53177;52.648;1.214;2023-07-31T02:51:14;13.20;;;3.27;;
66380;SDS011;53177;52.648;1.214;2023-07-31T02:53:40;13.13;;;3.60;;
66380;SDS011;53177;52.648;1.214;2023-07-31T02:56:05;11.50;;;3.60;;
66380;SDS011;53177;52.648;1.214;2023-07-31T02:58:31;14.73;;;3.73;;
66380;SDS011;53177;52.648;1.214;2023-07-31T03:00:57;10.93;;;3.00;;
66380;SDS011;53177;52.648;1.214;2023-07-31T03:03:23;13.07;;;3.10;;
66380;SDS011;53177;52.648;1.214;2023-07-31T03:05:49;14.70;;;3.53;;
66380;SDS011;53177;52.648;1.214;2023-07-31T03:08:14;12.05;;;2.95;;
66380;SDS011;53177;52.648;1.214;2023-07-31T03:10:40;12.63;;;3.50;;
66380;SDS011;53177;52.648;1.214;2023-07-31T03:13:05;9.20;;;2.67;;
66380;SDS011;53177;52.648;1.214;2023-07-31T03:15:31;10.07;;;2.80;;
66380;SDS011;53177;52.648;1.214;2023-07-31T03:17:56;9.77;;;2.53;;
66380;SDS011;53177;52.648;1.214;2023-07-31T03:20:22;8.40;;;2.57;;
66380;SDS011;53177;52.648;1.214;2023-07-31T03:22:48;9.52;;;2.60;;
66380;SDS011;53177;52.648;1.214;2023-07-31T03:25:13;8.23;;;2.20;;
66380;SDS011;53177;52.648;1.214;2023-07-31T03:27:39;8.85;;;2.83;;
66380;SDS011;53177;52.648;1.214;2023-07-31T03:30:04;6.87;;;2.40;;
66380;SDS011;53177;52.648;1.214;2023-07-31T03:32:30;8.82;;;2.40;;
66380;SDS011;53177;52.648;1.214;2023-07-31T03:34:56;8.33;;;2.30;;
66380;SDS011;53177;52.648;1.214;2023-07-31T03:37:22;7.03;;;2.00;;
66380;SDS011;53177;52.648;1.214;2023-07-31T03:39:48;7.57;;;2.20;;
66380;SDS011;53177;52.648;1.214;2023-07-31T03:42:16;7.68;;;2.30;;
66380;SDS011;53177;52.648;1.214;2023-07-31T03:44:42;6.80;;;2.10;;
66380;SDS011;53177;52.648;1.214;2023-07-31T03:47:11;8.30;;;2.10;;
66380;SDS011;53177;52.648;1.214;2023-07-31T03:49:36;8.82;;;2.33;;
66380;SDS011;53177;52.648;1.214;2023-07-31T03:52:02;7.50;;;2.33;;
66380;SDS011;53177;52.648;1.214;2023-07-31T03:54:27;7.87;;;2.10;;
66380;SDS011;53177;52.648;1.214;2023-07-31T03:56:53;8.05;;;2.00;;
66380;SDS011;53177;52.648;1.214;2023-07-31T03:59:18;7.38;;;2.08;;
66380;SDS011;53177;52.648;1.214;2023-07-31T04:01:43;8.33;;;1.90;;
66380;SDS011;53177;52.648;1.214;2023-07-31T04:04:09;6.90;;;1.90;;
66380;SDS011;53177;52.648;1.214;2023-07-31T04:06:34;8.90;;;2.43;;
66380;SDS011;53177;52.648;1.214;2023-07-31T04:08:59;8.77;;;2.50;;
66380;SDS011;53177;52.648;1.214;2023-07-31T04:11:25;12.07;;;3.37;;
66380;SDS011;53177;52.648;1.214;2023-07-31T04:13:50;7.97;;;2.37;;
66380;SDS011;53177;52.648;1.214;2023-07-31T04:16:15;8.77;;;2.13;;
66380;SDS011;53177;52.648;1.214;2023-07-31T04:18:41;8.48;;;1.92;;
66380;SDS011;53177;52.648;1.214;2023-07-31T04:21:06;9.90;;;2.60;;
66380;SDS011;53177;52.648;1.214;2023-07-31T04:23:31;9.37;;;2.87;;
66380;SDS011;53177;52.648;1.214;2023-07-31T04:25:57;9.73;;;3.10;;
66380;SDS011;53177;52.648;1.214;2023-07-31T04:28:22;10.53;;;2.50;;
66380;SDS011;53177;52.648;1.214;2023-07-31T04:30:47;8.20;;;2.10;;
66380;SDS011;53177;52.648;1.214;2023-07-31T04:33:13;10.13;;;2.70;;
66380;SDS011;53177;52.648;1.214;2023-07-31T04:35:38;10.95;;;2.83;;
66380;SDS011;53177;52.648;1.214;2023-07-31T04:38:04;11.07;;;3.63;;
66380;SDS011;53177;52.648;1.214;2023-07-31T04:40:29;11.07;;;3.23;;
66380;SDS011;53177;52.648;1.214;2023-07-31T04:42:54;11.57;;;3.87;;
66380;SDS011;53177;52.648;1.214;2023-07-31T04:45:20;10.60;;;3.03;;
66380;SDS011;53177;52.648;1.214;2023-07-31T04:47:45;7.27;;;2.50;;
66380;SDS011;53177;52.648;1.214;2023-07-31T04:50:11;7.80;;;2.60;;
66380;SDS011;53177;52.648;1.214;2023-07-31T04:52:37;6.85;;;1.98;;
66380;SDS011;53177;52.648;1.214;2023-07-31T04:55:03;10.50;;;2.80;;
66380;SDS011;53177;52.648;1.214;2023-07-31T04:57:28;9.17;;;2.57;;
66380;SDS011;53177;52.648;1.214;2023-07-31T04:59:54;6.80;;;2.13;;
66380;SDS011;53177;52.648;1.214;2023-07-31T05:02:19;12.20;;;3.30;;
66380;SDS011;53177;52.648;1.214;2023-07-31T05:04:44;18.23;;;4.55;;
66380;SDS011;53177;52.648;1.214;2023-07-31T05:07:10;9.53;;;2.77;;
66380;SDS011;53177;52.648;1.214;2023-07-31T05:09:35;8.73;;;2.70;;
66380;SDS011;53177;52.648;1.214;2023-07-31T05:12:01;8.57;;;2.50;;
66380;SDS011;53177;52.648;1.214;2023-07-31T05:14:26;9.23;;;2.40;;
66380;SDS011;53177;52.648;1.214;2023-07-31T05:16:51;11.03;;;2.93;;
66380;SDS011;53177;52.648;1.214;2023-07-31T05:19:17;10.27;;;3.83;;
66380;SDS011;53177;52.648;1.214;2023-07-31T05:21:42;6.37;;;1.93;;
66380;SDS011;53177;52.648;1.214;2023-07-31T05:24:08;10.30;;;2.77;;
66380;SDS011;53177;52.648;1.214;2023-07-31T05:26:33;9.67;;;2.50;;
66380;SDS011;53177;52.648;1.214;2023-07-31T05:28:59;8.37;;;2.50;;
66380;SDS011;53177;52.648;1.214;2023-07-31T05:31:24;9.27;;;2.50;;
66380;SDS011;53177;52.648;1.214;2023-07-31T05:33:50;6.87;;;2.60;;
66380;SDS011;53177;52.648;1.214;2023-07-31T05:36:16;9.27;;;2.58;;
66380;SDS011;53177;52.648;1.214;2023-07-31T05:38:42;6.28;;;1.88;;
66380;SDS011;53177;52.648;1.214;2023-07-31T05:41:09;8.18;;;2.35;;
66380;SDS011;53177;52.648;1.214;2023-07-31T05:43:34;8.40;;;3.07;;
66380;SDS011;53177;52.648;1.214;2023-07-31T05:46:00;6.60;;;2.13;;
66380;SDS011;53177;52.648;1.214;2023-07-31T05:48:26;8.32;;;3.30;;
66380;SDS011;53177;52.648;1.214;2023-07-31T05:50:51;10.93;;;3.13;;
66380;SDS011;53177;52.648;1.214;2023-07-31T05:53:17;9.27;;;3.22;;
66380;SDS011;53177;52.648;1.214;2023-07-31T05:55:42;16.93;;;5.60;;
66380;SDS011;53177;52.648;1.214;2023-07-31T05:58:07;9.60;;;3.90;;
66380;SDS011;53177;52.648;1.214;2023-07-31T06:00:33;13.53;;;4.57;;
66380;SDS011;53177;52.648;1.214;2023-07-31T06:02:58;10.80;;;3.47;;
66380;SDS011;53177;52.648;1.214;2023-07-31T06:05:23;11.27;;;3.50;;
66380;SDS011;53177;52.648;1.214;2023-07-31T06:07:49;8.45;;;3.22;;
66380;SDS011;53177;52.648;1.214;2023-07-31T06:10:15;9.63;;;2.93;;
66380;SDS011;53177;52.648;1.214;2023-07-31T06:12:41;10.05;;;3.58;;
66380;SDS011;53177;52.648;1.214;2023-07-31T06:15:06;14.03;;;4.50;;
66380;SDS011;53177;52.648;1.214;2023-07-31T06:17:32;10.13;;;3.20;;
66380;SDS011;53177;52.648;1.214;2023-07-31T06:19:58;9.32;;;3.58;;
66380;SDS011;53177;52.648;1.214;2023-07-31T06:22:23;15.57;;;4.93;;
66380;SDS011;53177;52.648;1.214;2023-07-31T06:24:48;9.87;;;3.00;;
66380;SDS011;53177;52.648;1.214;2023-07-31T06:27:14;11.77;;;4.10;;
66380;SDS011;53177;52.648;1.214;2023-07-31T06:29:39;10.87;;;3.50;;
66380;SDS011;53177;52.648;1.214;2023-07-31T06:32:05;11.82;;;3.42;;
66380;SDS011;53177;52.648;1.214;2023-07-31T06:34:30;8.65;;;2.47;;
66380;SDS011;53177;52.648;1.214;2023-07-31T06:36:56;12.47;;;3.40;;
66380;SDS011;53177;52.648;1.214;2023-07-31T06:39:21;8.20;;;2.10;;
66380;SDS011;53177;52.648;1.214;2023-07-31T06:41:47;9.53;;;3.23;;
66380;SDS011;53177;52.648;1.214;2023-07-31T06:44:12;11.80;;;3.70;;
66380;SDS011;53177;52.648;1.214;2023-07-31T06:46:38;13.87;;;3.40;;
66380;SDS011;53177;52.648;1.214;2023-07-31T06:49:03;12.53;;;4.13;;
66380;SDS011;53177;52.648;1.214;2023-07-31T06:51:29;9.40;;;3.50;;
66380;SDS011;53177;52.648;1.214;2023-07-31T06:53:56;11.23;;;3.50;;
66380;SDS011;53177;52.648;1.214;2023-07-31T06:56:22;11.85;;;3.97;;
66380;SDS011;53177;52.648;1.214;2023-07-31T06:58:47;10.23;;;3.13;;
66380;SDS011;53177;52.648;1.214;2023-07-31T07:01:13;9.80;;;3.20;;
66380;SDS011;53177;52.648;1.214;2023-07-31T07:03:38;12.57;;;3.90;;
66380;SDS011;53177;52.648;1.214;2023-07-31T07:06:03;14.43;;;4.30;;
66380;SDS011;53177;52.648;1.214;2023-07-31T07:08:29;14.13;;;5.00;;
66380;SDS011;53177;52.648;1.214;2023-07-31T07:10:54;13.05;;;4.53;;
66380;SDS011;53177;52.648;1.214;2023-07-31T07:13:20;18.43;;;5.23;;
66380;SDS011;53177;52.648;1.214;2023-07-31T07:15:49;7.80;;;2.60;;
66380;SDS011;53177;52.648;1.214;2023-07-31T07:18:15;8.20;;;2.70;;
66380;SDS011;53177;52.648;1.214;2023-07-31T07:20:45;8.68;;;2.70;;
66380;SDS011;53177;52.648;1.214;2023-07-31T07:23:22;9.18;;;2.97;;
66380;SDS011;53177;52.648;1.214;2023-07-31T07:25:47;7.20;;;2.60;;
66380;SDS011;53177;52.648;1.214;2023-07-31T07:28:13;8.60;;;2.50;;
66380;SDS011;53177;52.648;1.214;2023-07-31T07:30:39;10.13;;;3.50;;
66380;SDS011;53177;52.648;1.214;2023-07-31T07:33:05;13.17;;;4.60;;
66380;SDS011;53177;52.648;1.214;2023-07-31T07:35:32;15.48;;;4.78;;
66380;SDS011;53177;52.648;1.214;2023-07-31T07:37:58;14.40;;;4.45;;
66380;SDS011;53177;52.648;1.214;2023-07-31T07:40:24;12.57;;;4.03;;
66380;SDS011;53177;52.648;1.214;2023-07-31T07:42:50;14.95;;;4.30;;
66380;SDS011;53177;52.648;1.214;2023-07-31T07:45:15;13.07;;;4.57;;
66380;SDS011;53177;52.648;1.214;2023-07-31T07:47:41;9.93;;;3.80;;
66380;SDS011;53177;52.648;1.214;2023-07-31T07:50:07;9.77;;;4.07;;
66380;SDS011;53177;52.648;1.214;2023-07-31T07:52:33;9.73;;;3.50;;
66380;SDS011;53177;52.648;1.214;2023-07-31T07:54:59;10.07;;;3.53;;
66380;SDS011;53177;52.648;1.214;2023-07-31T07:57:25;8.32;;;3.05;;
66380;SDS011;53177;52.648;1.214;2023-07-31T07:59:50;13.57;;;5.20;;
66380;SDS011;53177;52.648;1.214;2023-07-31T08:02:16;14.97;;;4.80;;
66380;SDS011;53177;52.648;1.214;2023-07-31T08:04:41;8.93;;;3.00;;
66380;SDS011;53177;52.648;1.214;2023-07-31T08:07:07;10.40;;;3.70;;
66380;SDS011;53177;52.648;1.214;2023-07-31T08:09:32;7.57;;;2.85;;
66380;SDS011;53177;52.648;1.214;2023-07-31T08:11:57;13.20;;;4.00;;
66380;SDS011;53177;52.648;1.214;2023-07-31T08:14:27;12.02;;;4.43;;
66380;SDS011;53177;52.648;1.214;2023-07-31T08:16:52;17.23;;;6.30;;
66380;SDS011;53177;52.648;1.214;2023-07-31T08:19:17;11.30;;;3.80;;
66380;SDS011;53177;52.648;1.214;2023-07-31T08:21:43;9.33;;;3.63;;
66380;SDS011;53177;52.648;1.214;2023-07-31T08:24:08;10.13;;;3.30;;
66380;SDS011;53177;52.648;1.214;2023-07-31T08:26:34;12.32;;;4.40;;
66380;SDS011;53177;52.648;1.214;2023-07-31T08:28:59;7.93;;;2.90;;
66380;SDS011;53177;52.648;1.214;2023-07-31T08:31:24;8.37;;;2.83;;
66380;SDS011;53177;52.648;1.214;2023-07-31T08:33:50;10.67;;;3.90;;
66380;SDS011;53177;52.648;1.214;2023-07-31T08:36:15;15.27;;;5.30;;
66380;SDS011;53177;52.648;1.214;2023-07-31T08:38:41;8.23;;;2.63;;
66380;SDS011;53177;52.648;1.214;2023-07-31T08:41:06;9.53;;;3.00;;
66380;SDS011;53177;52.648;1.214;2023-07-31T08:43:31;6.23;;;2.50;;
66380;SDS011;53177;52.648;1.214;2023-07-31T08:45:57;7.53;;;2.40;;
66380;SDS011;53177;52.648;1.214;2023-07-31T08:48:24;12.17;;;4.80;;
66380;SDS011;53177;52.648;1.214;2023-07-31T08:50:53;8.27;;;3.20;;
66380;SDS011;53177;52.648;1.214;2023-07-31T08:53:19;7.15;;;2.78;;
66380;SDS011;53177;52.648;1.214;2023-07-31T08:55:44;9.00;;;3.53;;
66380;SDS011;53177;52.648;1.214;2023-07-31T08:58:12;11.85;;;5.00;;
66380;SDS011;53177;52.648;1.214;2023-07-31T09:00:38;16.73;;;6.25;;
66380;SDS011;53177;52.648;1.214;2023-07-31T09:03:15;11.25;;;4.63;;
66380;SDS011;53177;52.648;1.214;2023-07-31T09:05:43;10.27;;;3.50;;
66380;SDS011;53177;52.648;1.214;2023-07-31T09:08:10;10.07;;;4.00;;
66380;SDS011;53177;52.648;1.214;2023-07-31T09:10:43;9.98;;;4.35;;
66380;SDS011;53177;52.648;1.214;2023-07-31T09:13:11;7.80;;;3.13;;
66380;SDS011;53177;52.648;1.214;2023-07-31T09:15:40;12.48;;;4.50;;
66380;SDS011;53177;52.648;1.214;2023-07-31T09:18:10;12.77;;;5.00;;
66380;SDS011;53177;52.648;1.214;2023-07-31T09:20:36;7.80;;;3.00;;
66380;SDS011;53177;52.648;1.214;2023-07-31T09:23:06;8.32;;;2.95;;
66380;SDS011;53177;52.648;1.214;2023-07-31T09:25:33;10.40;;;3.70;;
66380;SDS011;53177;52.648;1.214;2023-07-31T09:27:59;13.57;;;4.55;;
66380;SDS011;53177;52.648;1.214;2023-07-31T09:30:26;10.75;;;3.10;;
66380;SDS011;53177;52.648;1.214;2023-07-31T09:33:01;14.53;;;4.77;;
66380;SDS011;53177;52.648;1.214;2023-07-31T09:35:28;11.10;;;4.43;;
66380;SDS011;53177;52.648;1.214;2023-07-31T09:37:56;15.70;;;5.27;;
66380;SDS011;53177;52.648;1.214;2023-07-31T09:40:27;9.80;;;3.53;;
66380;SDS011;53177;52.648;1.214;2023-07-31T09:42:56;10.65;;;3.83;;
66380;SDS011;53177;52.648;1.214;2023-07-31T09:45:23;9.38;;;3.60;;
66380;SDS011;53177;52.648;1.214;2023-07-31T09:47:49;6.63;;;2.70;;
66380;SDS011;53177;52.648;1.214;2023-07-31T09:50:15;15.43;;;5.63;;
66380;SDS011;53177;52.648;1.214;2023-07-31T09:52:41;9.88;;;3.88;;
66380;SDS011;53177;52.648;1.214;2023-07-31T09:55:07;8.97;;;3.40;;
66380;SDS011;53177;52.648;1.214;2023-07-31T09:57:33;8.90;;;3.30;;
66380;SDS011;53177;52.648;1.214;2023-07-31T09:59:59;7.40;;;3.17;;
66380;SDS011;53177;52.648;1.214;2023-07-31T10:02:25;6.35;;;2.58;;
66380;SDS011;53177;52.648;1.214;2023-07-31T10:04:53;6.18;;;2.60;;
66380;SDS011;53177;52.648;1.214;2023-07-31T10:07:23;7.45;;;2.90;;
66380;SDS011;53177;52.648;1.214;2023-07-31T10:09:52;7.53;;;2.90;;
66380;SDS011;53177;52.648;1.214;2023-07-31T10:12:19;7.07;;;2.47;;
66380;SDS011;53177;52.648;1.214;2023-07-31T10:14:50;7.20;;;2.70;;
66380;SDS011;53177;52.648;1.214;2023-07-31T10:17:19;7.65;;;3.08;;
66380;SDS011;53177;52.648;1.214;2023-07-31T10:19:47;9.05;;;3.80;;
66380;SDS011;53177;52.648;1.214;2023-07-31T10:22:14;8.47;;;2.80;;
66380;SDS011;53177;52.648;1.214;2023-07-31T10:24:39;9.52;;;3.15;;
66380;SDS011;53177;52.648;1.214;2023-07-31T10:27:10;13.70;;;4.25;;
66380;SDS011;53177;52.648;1.214;2023-07-31T10:29:39;13.43;;;4.03;;
66380;SDS011;53177;52.648;1.214;2023-07-31T10:32:08;9.27;;;3.17;;
66380;SDS011;53177;52.648;1.214;2023-07-31T10:34:37;8.07;;;2.83;;
66380;SDS011;53177;52.648;1.214;2023-07-31T10:37:23;6.60;;;2.47;;
66380;SDS011;53177;52.648;1.214;2023-07-31T10:45:09;6.23;;;2.10;;
66380;SDS011;53177;52.648;1.214;2023-07-31T10:47:44;6.43;;;2.50;;
66380;SDS011;53177;52.648;1.214;2023-07-31T10:52:52;6.50;;;2.27;;
66380;SDS011;53177;52.648;1.214;2023-07-31T11:00:32;12.23;;;3.70;;
66380;SDS011;53177;52.648;1.214;2023-07-31T11:08:22;11.30;;;3.85;;
66380;SDS011;53177;52.648;1.214;2023-07-31T11:13:26;8.33;;;2.50;;
66380;SDS011;53177;52.648;1.214;2023-07-31T11:15:51;6.70;;;2.60;;
66380;SDS011;53177;52.648;1.214;2023-07-31T11:18:17;5.33;;;2.00;;
66380;SDS011;53177;52.648;1.214;2023-07-31T11:20:43;5.77;;;1.90;;
66380;SDS011;53177;52.648;1.214;2023-07-31T11:23:09;5.97;;;2.10;;
66380;SDS011;53177;52.648;1.214;2023-07-31T11:25:35;6.93;;;2.42;;
66380;SDS011;53177;52.648;1.214;2023-07-31T11:28:08;6.95;;;2.45;;
66380;SDS011;53177;52.648;1.214;2023-07-31T11:30:34;5.40;;;2.13;;
66380;SDS011;53177;52.648;1.214;2023-07-31T11:33:01;11.02;;;3.95;;
66380;SDS011;53177;52.648;1.214;2023-07-31T11:35:28;7.25;;;2.42;;
66380;SDS011;53177;52.648;1.214;2023-07-31T11:38:00;4.63;;;1.80;;
66380;SDS011;53177;52.648;1.214;2023-07-31T11:40:27;5.45;;;1.90;;
66380;SDS011;53177;52.648;1.214;2023-07-31T11:42:57;6.17;;;2.57;;
66380;SDS011;53177;52.648;1.214;2023-07-31T11:45:27;6.78;;;2.50;;
66380;SDS011;53177;52.648;1.214;2023-07-31T11:47:56;6.45;;;2.20;;
66380;SDS011;53177;52.648;1.214;2023-07-31T11:50:22;5.90;;;2.45;;
66380;SDS011;53177;52.648;1.214;2023-07-31T11:52:52;6.90;;;2.47;;
66380;SDS011;53177;52.648;1.214;2023-07-31T11:55:22;5.23;;;2.20;;
66380;SDS011;53177;52.648;1.214;2023-07-31T11:57:48;7.18;;;2.50;;
66380;SDS011;53177;52.648;1.214;2023-07-31T12:00:14;7.60;;;2.60;;
66380;SDS011;53177;52.648;1.214;2023-07-31T12:02:42;6.07;;;2.27;;
66380;SDS011;53177;52.648;1.214;2023-07-31T12:05:11;7.07;;;2.30;;
66380;SDS011;53177;52.648;1.214;2023-07-31T12:07:44;5.88;;;2.20;;
66380;SDS011;53177;52.648;1.214;2023-07-31T12:10:24;5.70;;;2.20;;
66380;SDS011;53177;52.648;1.214;2023-07-31T12:15:34;5.80;;;1.70;;
66380;SDS011;53177;52.648;1.214;2023-07-31T12:18:07;4.97;;;1.70;;
66380;SDS011;53177;52.648;1.214;2023-07-31T12:20:34;5.38;;;1.70;;
66380;SDS011;53177;52.648;1.214;2023-07-31T12:23:00;5.47;;;1.83;;
66380;SDS011;53177;52.648;1.214;2023-07-31T12:25:30;5.13;;;1.90;;
66380;SDS011;53177;52.648;1.214;2023-07-31T12:27:57;4.35;;;1.60;;
66380;SDS011;53177;52.648;1.214;2023-07-31T12:30:32;4.95;;;1.80;;
66380;SDS011;53177;52.648;1.214;2023-07-31T12:33:05;5.63;;;1.52;;
66380;SDS011;53177;52.648;1.214;2023-07-31T12:35:39;4.93;;;1.70;;
66380;SDS011;53177;52.648;1.214;2023-07-31T12:38:08;5.47;;;1.50;;
66380;SDS011;53177;52.648;1.214;2023-07-31T12:40:35;5.73;;;1.80;;
66380;SDS011;53177;52.648;1.214;2023-07-31T12:43:02;4.90;;;1.60;;
66380;SDS011;53177;52.648;1.214;2023-07-31T12:45:31;5.13;;;1.90;;
66380;SDS011;53177;52.648;1.214;2023-07-31T12:48:00;4.78;;;1.80;;
66380;SDS011;53177;52.648;1.214;2023-07-31T12:50:27;4.80;;;1.80;;
66380;SDS011;53177;52.648;1.214;2023-07-31T12:52:53;5.13;;;1.48;;
66380;SDS011;53177;52.648;1.214;2023-07-31T12:55:20;6.67;;;2.00;;
66380;SDS011;53177;52.648;1.214;2023-07-31T12:57:46;5.20;;;1.90;;
66380;SDS011;53177;52.648;1.214;2023-07-31T13:00:11;6.43;;;1.90;;
66380;SDS011;53177;52.648;1.214;2023-07-31T13:02:38;5.38;;;1.95;;
66380;SDS011;53177;52.648;1.214;2023-07-31T13:05:03;6.03;;;1.90;;
66380;SDS011;53177;52.648;1.214;2023-07-31T13:07:29;5.78;;;2.10;;
66380;SDS011;53177;52.648;1.214;2023-07-31T13:09:54;8.07;;;2.50;;
66380;SDS011;53177;52.648;1.214;2023-07-31T13:12:19;5.67;;;2.00;;
66380;SDS011;53177;52.648;1.214;2023-07-31T13:14:45;7.10;;;2.50;;
66380;SDS011;53177;52.648;1.214;2023-07-31T13:17:10;6.37;;;2.40;;
66380;SDS011;53177;52.648;1.214;2023-07-31T13:19:36;6.25;;;2.22;;
66380;SDS011;53177;52.648;1.214;2023-07-31T13:22:01;8.30;;;2.47;;
66380;SDS011;53177;52.648;1.214;2023-07-31T13:24:26;8.13;;;3.40;;
66380;SDS011;53177;52.648;1.214;2023-07-31T13:26:52;9.13;;;3.27;;
66380;SDS011;53177;52.648;1.214;2023-07-31T13:29:17;7.33;;;2.90;;
66380;SDS011;53177;52.648;1.214;2023-07-31T13:31:42;7.30;;;2.73;;
66380;SDS011;53177;52.648;1.214;2023-07-31T13:34:08;6.57;;;2.23;;
66380;SDS011;53177;52.648;1.214;2023-07-31T13:36:33;6.35;;;2.35;;
66380;SDS011;53177;52.648;1.214;2023-07-31T13:38:59;5.97;;;2.30;;
66380;SDS011;53177;52.648;1.214;2023-07-31T13:41:25;7.55;;;2.13;;
66380;SDS011;53177;52.648;1.214;2023-07-31T13:43:51;8.55;;;2.47;;
66380;SDS011;53177;52.648;1.214;2023-07-31T13:46:16;5.97;;;2.57;;
66380;SDS011;53177;52.648;1.214;2023-07-31T13:48:42;7.97;;;2.90;;
66380;SDS011;53177;52.648;1.214;2023-07-31T13:51:07;8.40;;;2.60;;
66380;SDS011;53177;52.648;1.214;2023-07-31T13:53:32;10.67;;;3.33;;
66380;SDS011;53177;52.648;1.214;2023-07-31T13:55:58;9.57;;;4.00;;
66380;SDS011;53177;52.648;1.214;2023-07-31T13:58:23;15.57;;;5.40;;
66380;SDS011;53177;52.648;1.214;2023-07-31T14:00:48;9.10;;;3.00;;
66380;SDS011;53177;52.648;1.214;2023-07-31T14:03:14;8.33;;;2.97;;
66380;SDS011;53177;52.648;1.214;2023-07-31T14:05:39;7.63;;;2.57;;
66380;SDS011;53177;52.648;1.214;2023-07-31T14:08:04;5.63;;;2.00;;
66380;SDS011;53177;52.648;1.214;2023-07-31T14:10:30;6.33;;;2.30;;
66380;SDS011;53177;52.648;1.214;2023-07-31T14:12:55;6.17;;;2.10;;
66380;SDS011;53177;52.648;1.214;2023-07-31T14:15:20;10.87;;;4.30;;
66380;SDS011;53177;52.648;1.214;2023-07-31T14:17:46;9.13;;;3.30;;
66380;SDS011;53177;52.648;1.214;2023-07-31T14:20:12;7.40;;;2.60;;
66380;SDS011;53177;52.648;1.214;2023-07-31T14:22:38;8.75;;;2.95;;
66380;SDS011;53177;52.648;1.214;2023-07-31T14:25:04;7.17;;;2.20;;
66380;SDS011;53177;52.648;1.214;2023-07-31T14:27:29;8.00;;;2.90;;
66380;SDS011;53177;52.648;1.214;2023-07-31T14:29:55;8.17;;;2.87;;
66380;SDS011;53177;52.648;1.214;2023-07-31T14:32:21;5.77;;;2.13;;
66380;SDS011;53177;52.648;1.214;2023-07-31T14:34:50;6.47;;;2.50;;
66380;SDS011;53177;52.648;1.214;2023-07-31T14:37:15;6.32;;;2.58;;
66380;SDS011;53177;52.648;1.214;2023-07-31T14:39:41;6.03;;;2.20;;
66380;SDS011;53177;52.648;1.214;2023-07-31T14:42:06;7.60;;;2.30;;
66380;SDS011;53177;52.648;1.214;2023-07-31T14:44:31;6.63;;;2.10;;
66380;SDS011;53177;52.648;1.214;2023-07-31T14:46:57;10.80;;;2.43;;
66380;SDS011;53177;52.648;1.214;2023-07-31T14:49:22;6.70;;;2.10;;
66380;SDS011;53177;52.648;1.214;2023-07-31T14:51:48;5.60;;;1.90;;
66380;SDS011;53177;52.648;1.214;2023-07-31T14:54:13;8.13;;;2.53;;
66380;SDS011;53177;52.648;1.214;2023-07-31T14:56:39;6.80;;;2.27;;
66380;SDS011;53177;52.648;1.214;2023-07-31T14:59:04;6.00;;;2.35;;
66380;SDS011;53177;52.648;1.214;2023-07-31T15:01:30;10.00;;;2.83;;
66380;SDS011;53177;52.648;1.214;2023-07-31T15:03:55;6.03;;;2.10;;
66380;SDS011;53177;52.648;1.214;2023-07-31T15:06:20;6.27;;;2.50;;
66380;SDS011;53177;52.648;1.214;2023-07-31T15:08:46;6.10;;;2.30;;